sensor_id;sensor_type;location;lat;lon;timestamp;pressure;altitude;pressure_sealevel;temperature;humidity
14041;BME280;7095;51.388;6.196;2022-09-09T00:00:25;56227.81;;;-145.32;100.00
14041;BME280;7095;51.388;6.196;2022-09-09T00:03:01;56329.28;;;-145.32;100.00
14041;BME280;7095;51.388;6.196;2022-09-09T00:05:36;56546.19;;;-145.32;100.00
14041;BME280;7095;51.388;6.196;2022-09-09T00:08:15;56679.50;;;-145.32;100.00
14041;BME280;7095;51.388;6.196;2022-09-09T00:10:52;56777.00;;;-145.32;100.00
14041;BME280;7095;51.388;6.196;2022-09-09T00:13:25;56741.19;;;-145.32;100.00
14041;BME280;7095;51.388;6.196;2022-09-09T00:15:59;56733.22;;;-145.32;100.00
14041;BME280;7095;51.388;6.196;2022-09-09T00:18:44;56609.84;;;-145.32;100.00
14041;BME280;7095;51.388;6.196;2022-09-09T00:21:18;56681.50;;;-145.32;100.00
14041;BME280;7095;51.388;6.196;2022-09-09T00:23:49;56663.59;;;-145.32;100.00
14041;BME280;7095;51.388;6.196;2022-09-09T00:26:24;56502.41;;;-145.32;100.00
14041;BME280;7095;51.388;6.196;2022-09-09T00:29:04;56530.25;;;-145.32;100.00
14041;BME280;7095;51.388;6.196;2022-09-09T00:31:34;56757.13;;;-145.32;100.00
14041;BME280;7095;51.388;6.196;2022-09-09T00:34:11;56701.41;;;-145.32;100.00
14041;BME280;7095;51.388;6.196;2022-09-09T00:36:41;56452.66;;;-145.32;100.00
14041;BME280;7095;51.388;6.196;2022-09-09T00:39:15;56287.50;;;-145.32;100.00
14041;BME280;7095;51.388;6.196;2022-09-09T00:41:53;56052.72;;;-145.32;100.00
14041;BME280;7095;51.388;6.196;2022-09-09T00:44:30;56060.69;;;-145.32;100.00
14041;BME280;7095;51.388;6.196;2022-09-09T00:47:12;56199.97;;;-145.32;100.00
14041;BME280;7095;51.388;6.196;2022-09-09T00:49:54;56064.69;;;-145.32;100.00
14041;BME280;7095;51.388;6.196;2022-09-09T00:52:36;56124.34;;;-145.32;100.00
14041;BME280;7095;51.388;6.196;2022-09-09T00:55:13;56120.38;;;-145.32;100.00
14041;BME280;7095;51.388;6.196;2022-09-09T00:57:48;56060.69;;;-145.32;100.00
14041;BME280;7095;51.388;6.196;2022-09-09T01:00:21;56154.22;;;-145.32;100.00
14041;BME280;7095;51.388;6.196;2022-09-09T01:03:04;56110.44;;;-145.32;100.00
14041;BME280;7095;51.388;6.196;2022-09-09T01:05:42;56026.88;;;-145.32;100.00
14041;BME280;7095;51.388;6.196;2022-09-09T01:08:31;56016.94;;;-145.32;100.00
14041;BME280;7095;51.388;6.196;2022-09-09T01:11:09;56140.28;;;-145.32;100.00
14041;BME280;7095;51.388;6.196;2022-09-09T01:13:41;56219.88;;;-145.32;100.00
14041;BME280;7095;51.388;6.196;2022-09-09T01:16:11;56255.69;;;-145.32;100.00
14041;BME280;7095;51.388;6.196;2022-09-09T01:18:45;56390.97;;;-145.32;100.00
14041;BME280;7095;51.388;6.196;2022-09-09T01:21:24;56500.41;;;-145.32;100.00
14041;BME280;7095;51.388;6.196;2022-09-09T01:24:08;56412.88;;;-145.32;100.00
14041;BME280;7095;51.388;6.196;2022-09-09T01:27:10;56530.25;;;-145.32;100.00
14041;BME280;7095;51.388;6.196;2022-09-09T01:29:40;56665.56;;;-145.32;100.00
14041;BME280;7095;51.388;6.196;2022-09-09T01:32:40;56490.47;;;-145.32;100.00
14041;BME280;7095;51.388;6.196;2022-09-09T01:35:15;56572.06;;;-145.32;100.00
14041;BME280;7095;51.388;6.196;2022-09-09T01:37:46;56657.63;;;-145.32;100.00
14041;BME280;7095;51.388;6.196;2022-09-09T01:40:16;56657.63;;;-145.32;100.00
14041;BME280;7095;51.388;6.196;2022-09-09T01:42:48;56725.28;;;-145.32;100.00
14041;BME280;7095;51.388;6.196;2022-09-09T01:45:17;56836.72;;;-145.32;100.00
14041;BME280;7095;51.388;6.196;2022-09-09T01:47:46;56775.03;;;-145.32;100.00
14041;BME280;7095;51.388;6.196;2022-09-09T01:50:38;56983.97;;;-145.32;100.00
14041;BME280;7095;51.388;6.196;2022-09-09T01:53:07;56896.41;;;-145.32;100.00
14041;BME280;7095;51.388;6.196;2022-09-09T01:55:38;56932.22;;;-145.32;100.00
14041;BME280;7095;51.388;6.196;2022-09-09T01:58:20;56884.47;;;-145.32;100.00
14041;BME280;7095;51.388;6.196;2022-09-09T02:01:00;56824.78;;;-145.32;100.00
14041;BME280;7095;51.388;6.196;2022-09-09T02:03:32;56784.97;;;-145.32;100.00
14041;BME280;7095;51.388;6.196;2022-09-09T02:06:25;56681.50;;;-145.32;100.00
14041;BME280;7095;51.388;6.196;2022-09-09T02:09:04;56343.22;;;-145.32;100.00
14041;BME280;7095;51.388;6.196;2022-09-09T02:11:33;56335.25;;;-145.32;100.00
14041;BME280;7095;51.388;6.196;2022-09-09T02:14:30;56972.03;;;-145.32;100.00
14041;BME280;7095;51.388;6.196;2022-09-09T02:17:07;57157.13;;;-145.32;100.00
14041;BME280;7095;51.388;6.196;2022-09-09T02:20:06;57415.84;;;-145.32;100.00
14041;BME280;7095;51.388;6.196;2022-09-09T02:22:46;57135.22;;;-145.32;100.00
14041;BME280;7095;51.388;6.196;2022-09-09T02:25:22;57091.44;;;-145.32;100.00
14041;BME280;7095;51.388;6.196;2022-09-09T02:27:56;57200.91;;;-145.32;100.00
14041;BME280;7095;51.388;6.196;2022-09-09T02:30:29;57298.44;;;-145.32;100.00
14041;BME280;7095;51.388;6.196;2022-09-09T02:33:03;57111.34;;;-145.32;100.00
14041;BME280;7095;51.388;6.196;2022-09-09T02:35:46;57354.16;;;-145.32;100.00
14041;BME280;7095;51.388;6.196;2022-09-09T02:38:21;57537.28;;;-145.32;100.00
14041;BME280;7095;51.388;6.196;2022-09-09T02:41:00;57535.28;;;-145.32;100.00
14041;BME280;7095;51.388;6.196;2022-09-09T02:43:31;57493.47;;;-145.32;100.00
14041;BME280;7095;51.388;6.196;2022-09-09T02:46:11;57298.44;;;-145.32;100.00
14041;BME280;7095;51.388;6.196;2022-09-09T02:48:53;57123.28;;;-145.32;100.00
14041;BME280;7095;51.388;6.196;2022-09-09T02:51:35;57021.78;;;-145.32;100.00
14041;BME280;7095;51.388;6.196;2022-09-09T02:54:13;56870.53;;;-145.32;100.00
14041;BME280;7095;51.388;6.196;2022-09-09T02:56:49;57710.44;;;-145.32;100.00
14041;BME280;7095;51.388;6.196;2022-09-09T02:59:25;57989.13;;;-145.32;100.00
14041;BME280;7095;51.388;6.196;2022-09-09T03:01:56;58019.00;;;-145.32;100.00
14041;BME280;7095;51.388;6.196;2022-09-09T03:04:24;58363.41;;;-145.32;100.00
14041;BME280;7095;51.388;6.196;2022-09-09T03:06:53;58715.81;;;-145.32;100.00
14041;BME280;7095;51.388;6.196;2022-09-09T03:09:21;58789.47;;;-145.32;100.00
14041;BME280;7095;51.388;6.196;2022-09-09T03:11:50;58962.72;;;-145.32;100.00
14041;BME280;7095;51.388;6.196;2022-09-09T03:14:21;59090.16;;;-145.32;100.00
14041;BME280;7095;51.388;6.196;2022-09-09T03:16:51;59386.88;;;-145.32;100.00
14041;BME280;7095;51.388;6.196;2022-09-09T03:19:22;59675.66;;;-145.32;100.00
14041;BME280;7095;51.388;6.196;2022-09-09T03:21:51;60109.88;;;-145.32;100.00
14041;BME280;7095;51.388;6.196;2022-09-09T03:24:19;60456.50;;;-145.32;100.00
14041;BME280;7095;51.388;6.196;2022-09-09T03:26:48;60920.69;;;-145.32;100.00
14041;BME280;7095;51.388;6.196;2022-09-09T03:29:18;61131.91;;;-145.32;100.00
14041;BME280;7095;51.388;6.196;2022-09-09T03:31:46;61335.16;;;-145.32;100.00
14041;BME280;7095;51.388;6.196;2022-09-09T03:34:15;61648.00;;;-145.32;100.00
14041;BME280;7095;51.388;6.196;2022-09-09T03:36:45;61869.22;;;-145.32;100.00
14041;BME280;7095;51.388;6.196;2022-09-09T03:39:15;62132.31;;;-145.32;100.00
14041;BME280;7095;51.388;6.196;2022-09-09T03:41:44;62560.84;;;-145.32;100.00
14041;BME280;7095;51.388;6.196;2022-09-09T03:44:15;63190.81;;;-145.32;100.00
14041;BME280;7095;51.388;6.196;2022-09-09T03:46:43;63892.69;;;-145.32;100.00
14041;BME280;7095;51.388;6.196;2022-09-09T03:49:13;64283.56;;;-145.32;100.00
14041;BME280;7095;51.388;6.196;2022-09-09T03:51:42;64550.81;;;-145.32;100.00
14041;BME280;7095;51.388;6.196;2022-09-09T03:54:14;65252.97;;;-145.32;100.00
14041;BME280;7095;51.388;6.196;2022-09-09T03:56:43;65699.88;;;-145.32;100.00
14041;BME280;7095;51.388;6.196;2022-09-09T03:59:12;66182.75;;;-145.32;100.00
14041;BME280;7095;51.388;6.196;2022-09-09T04:01:42;66715.59;;;-145.32;100.00
14041;BME280;7095;51.388;6.196;2022-09-09T04:04:12;66917.16;;;-145.32;100.00
14041;BME280;7095;51.388;6.196;2022-09-09T04:06:40;67635.78;;;-145.32;100.00
14041;BME280;7095;51.388;6.196;2022-09-09T04:09:09;68110.94;;;-145.32;100.00
14041;BME280;7095;51.388;6.196;2022-09-09T04:11:38;68312.59;;;-145.32;100.00
14041;BME280;7095;51.388;6.196;2022-09-09T04:14:07;68660.06;;;-145.32;100.00
14041;BME280;7095;51.388;6.196;2022-09-09T04:16:36;69576.78;;;-145.32;100.00
14041;BME280;7095;51.388;6.196;2022-09-09T04:19:05;70070.19;;;-145.32;100.00
14041;BME280;7095;51.388;6.196;2022-09-09T04:21:35;70232.00;;;-145.32;100.00
14041;BME280;7095;51.388;6.196;2022-09-09T04:24:04;69636.69;;;-145.32;100.00
14041;BME280;7095;51.388;6.196;2022-09-09T04:26:32;69349.06;;;-145.32;100.00
14041;BME280;7095;51.388;6.196;2022-09-09T04:29:03;68330.56;;;-145.32;100.00
14041;BME280;7095;51.388;6.196;2022-09-09T04:31:34;68945.63;;;-145.32;100.00
14041;BME280;7095;51.388;6.196;2022-09-09T04:34:04;68957.59;;;-145.32;100.00
14041;BME280;7095;51.388;6.196;2022-09-09T04:36:33;68791.84;;;-145.32;100.00
14041;BME280;7095;51.388;6.196;2022-09-09T04:39:04;69293.13;;;-145.32;100.00
14041;BME280;7095;51.388;6.196;2022-09-09T04:41:33;68999.53;;;-145.32;100.00
14041;BME280;7095;51.388;6.196;2022-09-09T04:44:06;68136.88;;;-145.32;100.00
14041;BME280;7095;51.388;6.196;2022-09-09T04:46:35;68318.59;;;-145.32;100.00
14041;BME280;7095;51.388;6.196;2022-09-09T04:49:03;67531.97;;;-145.32;100.00
14041;BME280;7095;51.388;6.196;2022-09-09T04:51:33;66773.47;;;-145.32;100.00
14041;BME280;7095;51.388;6.196;2022-09-09T04:54:01;66729.56;;;-145.32;100.00
14041;BME280;7095;51.388;6.196;2022-09-09T04:56:30;66579.88;;;-145.32;100.00
14041;BME280;7095;51.388;6.196;2022-09-09T04:59:00;66446.16;;;-145.32;100.00
14041;BME280;7095;51.388;6.196;2022-09-09T05:01:38;66005.16;;;-145.32;100.00
14041;BME280;7095;51.388;6.196;2022-09-09T05:04:07;66292.50;;;-145.32;100.00
14041;BME280;7095;51.388;6.196;2022-09-09T05:06:36;66418.22;;;-145.32;100.00
14041;BME280;7095;51.388;6.196;2022-09-09T05:09:05;65803.63;;;-145.32;100.00
14041;BME280;7095;51.388;6.196;2022-09-09T05:11:34;65759.72;;;-145.32;100.00
14041;BME280;7095;51.388;6.196;2022-09-09T05:14:14;64925.81;;;-145.32;100.00
14041;BME280;7095;51.388;6.196;2022-09-09T05:16:45;64461.06;;;-145.32;100.00
14041;BME280;7095;51.388;6.196;2022-09-09T05:19:14;64012.34;;;-145.32;100.00
14041;BME280;7095;51.388;6.196;2022-09-09T05:21:52;63828.88;;;-145.32;100.00
14041;BME280;7095;51.388;6.196;2022-09-09T05:24:26;64626.63;;;-145.32;100.00
14041;BME280;7095;51.388;6.196;2022-09-09T05:26:57;63848.81;;;-145.32;100.00
14041;BME280;7095;51.388;6.196;2022-09-09T05:29:29;63868.75;;;-145.32;100.00
14041;BME280;7095;51.388;6.196;2022-09-09T05:32:04;63826.88;;;-145.32;100.00
14041;BME280;7095;51.388;6.196;2022-09-09T05:34:34;62957.56;;;-145.32;100.00
14041;BME280;7095;51.388;6.196;2022-09-09T05:37:04;62592.75;;;-145.32;100.00
14041;BME280;7095;51.388;6.196;2022-09-09T05:39:34;62227.97;;;-145.32;100.00
14041;BME280;7095;51.388;6.196;2022-09-09T05:42:05;61516.47;;;-145.32;100.00
14041;BME280;7095;51.388;6.196;2022-09-09T05:44:34;61560.31;;;-145.32;100.00
14041;BME280;7095;51.388;6.196;2022-09-09T05:47:04;61313.22;;;-145.32;100.00
14041;BME280;7095;51.388;6.196;2022-09-09T05:49:33;61038.25;;;-145.32;100.00
14041;BME280;7095;51.388;6.196;2022-09-09T05:52:02;60831.03;;;-145.32;100.00
14041;BME280;7095;51.388;6.196;2022-09-09T05:54:31;60552.13;;;-145.32;100.00
14041;BME280;7095;51.388;6.196;2022-09-09T05:57:00;59942.56;;;-145.32;100.00
14041;BME280;7095;51.388;6.196;2022-09-09T05:59:29;59476.50;;;-145.32;100.00
14041;BME280;7095;51.388;6.196;2022-09-09T06:02:00;59382.91;;;-145.32;100.00
14041;BME280;7095;51.388;6.196;2022-09-09T06:04:35;58879.09;;;-145.32;100.00
14041;BME280;7095;51.388;6.196;2022-09-09T06:07:04;58910.94;;;-145.32;100.00
14041;BME280;7095;51.388;6.196;2022-09-09T06:09:35;59070.25;;;-145.32;100.00
14041;BME280;7095;51.388;6.196;2022-09-09T06:12:07;59046.34;;;-145.32;100.00
14041;BME280;7095;51.388;6.196;2022-09-09T06:14:36;58566.47;;;-145.32;100.00
14041;BME280;7095;51.388;6.196;2022-09-09T06:17:10;58413.19;;;-145.32;100.00
14041;BME280;7095;51.388;6.196;2022-09-09T06:19:40;58670.00;;;-145.32;100.00
14041;BME280;7095;51.388;6.196;2022-09-09T06:22:08;58285.75;;;-145.32;100.00
14041;BME280;7095;51.388;6.196;2022-09-09T06:24:39;58325.56;;;-145.32;100.00
14041;BME280;7095;51.388;6.196;2022-09-09T06:27:08;57529.31;;;-145.32;100.00
14041;BME280;7095;51.388;6.196;2022-09-09T06:29:37;57405.91;;;-145.32;100.00
14041;BME280;7095;51.388;6.196;2022-09-09T06:32:07;57298.44;;;-145.32;100.00
14041;BME280;7095;51.388;6.196;2022-09-09T06:34:36;56629.75;;;-145.32;100.00
14041;BME280;7095;51.388;6.196;2022-09-09T06:37:07;56430.78;;;-145.32;100.00
14041;BME280;7095;51.388;6.196;2022-09-09T06:39:40;56394.97;;;-145.32;100.00
14041;BME280;7095;51.388;6.196;2022-09-09T06:42:09;56104.47;;;-145.32;100.00
14041;BME280;7095;51.388;6.196;2022-09-09T06:44:56;56006.97;;;-145.32;100.00
14041;BME280;7095;51.388;6.196;2022-09-09T06:47:34;55790.13;;;-145.32;100.00
14041;BME280;7095;51.388;6.196;2022-09-09T06:50:04;55615.06;;;-145.32;100.00
14041;BME280;7095;51.388;6.196;2022-09-09T06:52:36;55736.41;;;-145.32;100.00
14041;BME280;7095;51.388;6.196;2022-09-09T06:55:08;55814.00;;;-145.32;100.00
14041;BME280;7095;51.388;6.196;2022-09-09T06:57:37;55698.63;;;-145.32;100.00
14041;BME280;7095;51.388;6.196;2022-09-09T07:00:12;55619.03;;;-145.32;100.00
14041;BME280;7095;51.388;6.196;2022-09-09T07:02:41;55513.59;;;-145.32;100.00
14041;BME280;7095;51.388;6.196;2022-09-09T07:05:12;55334.59;;;-145.32;100.00
14041;BME280;7095;51.388;6.196;2022-09-09T07:07:45;55597.16;;;-145.32;100.00
14041;BME280;7095;51.388;6.196;2022-09-09T07:10:17;55529.53;;;-145.32;100.00
14041;BME280;7095;51.388;6.196;2022-09-09T07:12:50;55332.59;;;-145.32;100.00
14041;BME280;7095;51.388;6.196;2022-09-09T07:15:22;55193.34;;;-145.32;100.00
14041;BME280;7095;51.388;6.196;2022-09-09T07:17:50;55153.56;;;-145.32;100.00
14041;BME280;7095;51.388;6.196;2022-09-09T07:20:21;55149.59;;;-145.32;100.00
14041;BME280;7095;51.388;6.196;2022-09-09T07:22:54;54980.53;;;-145.32;100.00
14041;BME280;7095;51.388;6.196;2022-09-09T07:25:23;54720.00;;;-145.32;100.00
14041;BME280;7095;51.388;6.196;2022-09-09T07:27:51;54686.19;;;-145.32;100.00
14041;BME280;7095;51.388;6.196;2022-09-09T07:30:20;54501.22;;;-145.32;100.00
14041;BME280;7095;51.388;6.196;2022-09-09T07:32:54;54421.69;;;-145.32;100.00
14041;BME280;7095;51.388;6.196;2022-09-09T07:35:25;54405.78;;;-145.32;100.00
14041;BME280;7095;51.388;6.196;2022-09-09T07:37:55;54286.47;;;-145.32;100.00
14041;BME280;7095;51.388;6.196;2022-09-09T07:40:25;54220.84;;;-145.32;100.00
14041;BME280;7095;51.388;6.196;2022-09-09T07:42:54;54135.34;;;-145.32;100.00
14041;BME280;7095;51.388;6.196;2022-09-09T07:45:23;54167.16;;;-145.32;100.00
14041;BME280;7095;51.388;6.196;2022-09-09T07:47:51;54095.56;;;-145.32;100.00
14041;BME280;7095;51.388;6.196;2022-09-09T07:50:20;53988.19;;;-145.32;100.00
14041;BME280;7095;51.388;6.196;2022-09-09T07:52:50;53924.56;;;-145.32;100.00
14041;BME280;7095;51.388;6.196;2022-09-09T07:55:21;53904.69;;;-145.32;100.00
14041;BME280;7095;51.388;6.196;2022-09-09T07:57:52;53864.94;;;-145.32;100.00
14041;BME280;7095;51.388;6.196;2022-09-09T08:00:21;53862.94;;;-145.32;100.00
14041;BME280;7095;51.388;6.196;2022-09-09T08:02:55;53811.25;;;-145.32;100.00
14041;BME280;7095;51.388;6.196;2022-09-09T08:05:24;53757.56;;;-145.32;100.00
14041;BME280;7095;51.388;6.196;2022-09-09T08:07:52;53767.50;;;-145.32;100.00
14041;BME280;7095;51.388;6.196;2022-09-09T08:10:23;53693.94;;;-145.32;100.00
14041;BME280;7095;51.388;6.196;2022-09-09T08:12:53;53658.16;;;-145.32;100.00
14041;BME280;7095;51.388;6.196;2022-09-09T08:15:42;53600.50;;;-145.32;100.00
14041;BME280;7095;51.388;6.196;2022-09-09T08:18:11;53650.19;;;-145.32;100.00
14041;BME280;7095;51.388;6.196;2022-09-09T08:20:40;53572.66;;;-145.32;100.00
14041;BME280;7095;51.388;6.196;2022-09-09T08:23:09;53570.69;;;-145.32;100.00
14041;BME280;7095;51.388;6.196;2022-09-09T08:25:39;53562.72;;;-145.32;100.00
14041;BME280;7095;51.388;6.196;2022-09-09T08:28:07;53526.94;;;-145.32;100.00
14041;BME280;7095;51.388;6.196;2022-09-09T08:30:37;53520.97;;;-145.32;100.00
14041;BME280;7095;51.388;6.196;2022-09-09T08:33:06;53495.13;;;-145.32;100.00
14041;BME280;7095;51.388;6.196;2022-09-09T08:35:35;53453.38;;;-145.32;100.00
14041;BME280;7095;51.388;6.196;2022-09-09T08:38:03;53445.44;;;-145.32;100.00
14041;BME280;7095;51.388;6.196;2022-09-09T08:40:42;53417.59;;;-145.32;100.00
14041;BME280;7095;51.388;6.196;2022-09-09T08:43:18;53443.44;;;-145.32;100.00
14041;BME280;7095;51.388;6.196;2022-09-09T08:45:58;53413.63;;;-145.32;100.00
14041;BME280;7095;51.388;6.196;2022-09-09T08:48:50;53423.56;;;-145.32;100.00
14041;BME280;7095;51.388;6.196;2022-09-09T08:51:20;53391.75;;;-145.32;100.00
14041;BME280;7095;51.388;6.196;2022-09-09T08:53:51;53409.63;;;-145.32;100.00
14041;BME280;7095;51.388;6.196;2022-09-09T08:56:28;53403.69;;;-145.32;100.00
14041;BME280;7095;51.388;6.196;2022-09-09T08:59:02;53395.72;;;-145.32;100.00
14041;BME280;7095;51.388;6.196;2022-09-09T09:01:53;53395.72;;;-145.32;100.00
14041;BME280;7095;51.388;6.196;2022-09-09T09:04:45;53391.75;;;-145.32;100.00
14041;BME280;7095;51.388;6.196;2022-09-09T09:07:24;53355.97;;;-145.32;100.00
14041;BME280;7095;51.388;6.196;2022-09-09T09:10:08;53375.84;;;-145.32;100.00
14041;BME280;7095;51.388;6.196;2022-09-09T09:13:01;53371.88;;;-145.32;100.00
14041;BME280;7095;51.388;6.196;2022-09-09T09:15:33;53350.00;;;-145.32;100.00
14041;BME280;7095;51.388;6.196;2022-09-09T09:18:05;53344.03;;;-145.32;100.00
14041;BME280;7095;51.388;6.196;2022-09-09T09:20:38;53352.00;;;-145.32;100.00
14041;BME280;7095;51.388;6.196;2022-09-09T09:23:15;53355.97;;;-145.32;100.00
14041;BME280;7095;51.388;6.196;2022-09-09T09:25:47;53336.09;;;-145.32;100.00
14041;BME280;7095;51.388;6.196;2022-09-09T09:28:23;53363.91;;;-145.32;100.00
14041;BME280;7095;51.388;6.196;2022-09-09T09:31:01;53344.03;;;-145.32;100.00
14041;BME280;7095;51.388;6.196;2022-09-09T09:33:44;53336.09;;;-145.32;100.00
14041;BME280;7095;51.388;6.196;2022-09-09T09:36:14;53353.97;;;-145.32;100.00
14041;BME280;7095;51.388;6.196;2022-09-09T09:38:54;53342.06;;;-145.32;100.00
14041;BME280;7095;51.388;6.196;2022-09-09T09:41:44;53342.06;;;-145.32;100.00
14041;BME280;7095;51.388;6.196;2022-09-09T09:44:26;53336.09;;;-145.32;100.00
14041;BME280;7095;51.388;6.196;2022-09-09T09:47:07;53312.22;;;-145.32;100.00
14041;BME280;7095;51.388;6.196;2022-09-09T09:49:36;53316.22;;;-145.32;100.00
14041;BME280;7095;51.388;6.196;2022-09-09T09:52:06;53359.94;;;-145.32;100.00
14041;BME280;7095;51.388;6.196;2022-09-09T09:54:38;53336.09;;;-145.32;100.00
14041;BME280;7095;51.388;6.196;2022-09-09T09:57:12;53344.03;;;-145.32;100.00
14041;BME280;7095;51.388;6.196;2022-09-09T09:59:45;53371.88;;;-145.32;100.00
14041;BME280;7095;51.388;6.196;2022-09-09T10:02:22;53320.19;;;-145.32;100.00
14041;BME280;7095;51.388;6.196;2022-09-09T10:05:03;53369.88;;;-145.32;100.00
14041;BME280;7095;51.388;6.196;2022-09-09T10:07:34;53352.00;;;-145.32;100.00
14041;BME280;7095;51.388;6.196;2022-09-09T10:10:05;53361.94;;;-145.32;100.00
14041;BME280;7095;51.388;6.196;2022-09-09T10:12:41;53342.06;;;-145.32;100.00
14041;BME280;7095;51.388;6.196;2022-09-09T10:15:30;53344.03;;;-145.32;100.00
14041;BME280;7095;51.388;6.196;2022-09-09T10:18:06;53359.94;;;-145.32;100.00
14041;BME280;7095;51.388;6.196;2022-09-09T10:20:45;53302.28;;;-145.32;100.00
14041;BME280;7095;51.388;6.196;2022-09-09T10:23:29;53338.06;;;-145.32;100.00
14041;BME280;7095;51.388;6.196;2022-09-09T10:26:20;53308.25;;;-145.32;100.00
14041;BME280;7095;51.388;6.196;2022-09-09T10:29:08;53316.22;;;-145.32;100.00
14041;BME280;7095;51.388;6.196;2022-09-09T10:31:49;53348.00;;;-145.32;100.00
14041;BME280;7095;51.388;6.196;2022-09-09T10:34:38;53328.13;;;-145.32;100.00
14041;BME280;7095;51.388;6.196;2022-09-09T10:37:20;53330.13;;;-145.32;100.00
14041;BME280;7095;51.388;6.196;2022-09-09T10:40:02;53294.34;;;-145.32;100.00
14041;BME280;7095;51.388;6.196;2022-09-09T10:42:35;53328.13;;;-145.32;100.00
14041;BME280;7095;51.388;6.196;2022-09-09T10:45:16;53314.22;;;-145.32;100.00
14041;BME280;7095;51.388;6.196;2022-09-09T10:48:06;53316.22;;;-145.32;100.00
14041;BME280;7095;51.388;6.196;2022-09-09T10:50:49;53296.31;;;-145.32;100.00
14041;BME280;7095;51.388;6.196;2022-09-09T10:53:37;53302.28;;;-145.32;100.00
14041;BME280;7095;51.388;6.196;2022-09-09T10:56:12;53328.13;;;-145.32;100.00
14041;BME280;7095;51.388;6.196;2022-09-09T10:58:45;53367.91;;;-145.32;100.00
14041;BME280;7095;51.388;6.196;2022-09-09T11:01:20;53371.88;;;-145.32;100.00
14041;BME280;7095;51.388;6.196;2022-09-09T11:03:56;53371.88;;;-145.32;100.00
14041;BME280;7095;51.388;6.196;2022-09-09T11:06:31;53371.88;;;-145.32;100.00
14041;BME280;7095;51.388;6.196;2022-09-09T11:09:03;53373.84;;;-145.32;100.00
14041;BME280;7095;51.388;6.196;2022-09-09T11:11:38;53423.56;;;-145.32;100.00
14041;BME280;7095;51.388;6.196;2022-09-09T11:14:15;53441.44;;;-145.32;100.00
14041;BME280;7095;51.388;6.196;2022-09-09T11:16:50;53405.66;;;-145.32;100.00
14041;BME280;7095;51.388;6.196;2022-09-09T11:19:25;53415.59;;;-145.32;100.00
14041;BME280;7095;51.388;6.196;2022-09-09T11:21:57;53429.53;;;-145.32;100.00
14041;BME280;7095;51.388;6.196;2022-09-09T11:24:32;53431.50;;;-145.32;100.00
14041;BME280;7095;51.388;6.196;2022-09-09T11:27:08;53423.56;;;-145.32;100.00
14041;BME280;7095;51.388;6.196;2022-09-09T11:30:01;53409.63;;;-145.32;100.00
14041;BME280;7095;51.388;6.196;2022-09-09T11:32:46;53427.53;;;-145.32;100.00
14041;BME280;7095;51.388;6.196;2022-09-09T11:35:30;53431.50;;;-145.32;100.00
14041;BME280;7095;51.388;6.196;2022-09-09T11:38:16;53437.47;;;-145.32;100.00
14041;BME280;7095;51.388;6.196;2022-09-09T11:40:47;53469.28;;;-145.32;100.00
14041;BME280;7095;51.388;6.196;2022-09-09T11:43:24;53479.22;;;-145.32;100.00
14041;BME280;7095;51.388;6.196;2022-09-09T11:45:57;53485.19;;;-145.32;100.00
14041;BME280;7095;51.388;6.196;2022-09-09T11:48:31;53495.13;;;-145.32;100.00
14041;BME280;7095;51.388;6.196;2022-09-09T11:51:06;53524.94;;;-145.32;100.00
14041;BME280;7095;51.388;6.196;2022-09-09T11:53:49;53530.91;;;-145.32;100.00
14041;BME280;7095;51.388;6.196;2022-09-09T11:56:29;53566.69;;;-145.32;100.00
14041;BME280;7095;51.388;6.196;2022-09-09T11:59:01;53566.69;;;-145.32;100.00
14041;BME280;7095;51.388;6.196;2022-09-09T12:01:35;53552.78;;;-145.32;100.00
14041;BME280;7095;51.388;6.196;2022-09-09T12:04:14;53620.38;;;-145.32;100.00
14041;BME280;7095;51.388;6.196;2022-09-09T12:06:52;53642.25;;;-145.32;100.00
14041;BME280;7095;51.388;6.196;2022-09-09T12:09:27;53725.75;;;-145.32;100.00
14041;BME280;7095;51.388;6.196;2022-09-09T12:12:21;53721.78;;;-145.32;100.00
14041;BME280;7095;51.388;6.196;2022-09-09T12:15:03;53813.22;;;-145.32;100.00
14041;BME280;7095;51.388;6.196;2022-09-09T12:17:45;53837.09;;;-145.32;100.00
14041;BME280;7095;51.388;6.196;2022-09-09T12:20:15;53940.47;;;-145.32;100.00
14041;BME280;7095;51.388;6.196;2022-09-09T12:22:55;53892.75;;;-145.32;100.00
14041;BME280;7095;51.388;6.196;2022-09-09T12:25:32;53835.09;;;-145.32;100.00
14041;BME280;7095;51.388;6.196;2022-09-09T12:28:08;53793.34;;;-145.32;100.00
14041;BME280;7095;51.388;6.196;2022-09-09T12:30:44;53799.31;;;-145.32;100.00
14041;BME280;7095;51.388;6.196;2022-09-09T12:33:18;53789.38;;;-145.32;100.00
14041;BME280;7095;51.388;6.196;2022-09-09T12:35:54;53693.94;;;-145.32;100.00
14041;BME280;7095;51.388;6.196;2022-09-09T12:38:32;53622.38;;;-145.32;100.00
14041;BME280;7095;51.388;6.196;2022-09-09T12:41:03;53618.38;;;-145.32;100.00
14041;BME280;7095;51.388;6.196;2022-09-09T12:43:31;53610.44;;;-145.32;100.00
14041;BME280;7095;51.388;6.196;2022-09-09T12:46:02;53598.50;;;-145.32;100.00
14041;BME280;7095;51.388;6.196;2022-09-09T12:48:36;53518.97;;;-145.32;100.00
14041;BME280;7095;51.388;6.196;2022-09-09T12:51:18;53503.06;;;-145.32;100.00
14041;BME280;7095;51.388;6.196;2022-09-09T12:53:49;53455.38;;;-145.32;100.00
14041;BME280;7095;51.388;6.196;2022-09-09T12:56:21;53461.31;;;-145.32;100.00
14041;BME280;7095;51.388;6.196;2022-09-09T12:58:52;53457.34;;;-145.32;100.00
14041;BME280;7095;51.388;6.196;2022-09-09T13:01:23;53463.31;;;-145.32;100.00
14041;BME280;7095;51.388;6.196;2022-09-09T13:03:53;53435.47;;;-145.32;100.00
14041;BME280;7095;51.388;6.196;2022-09-09T13:06:23;53409.63;;;-145.32;100.00
14041;BME280;7095;51.388;6.196;2022-09-09T13:08:58;53443.44;;;-145.32;100.00
14041;BME280;7095;51.388;6.196;2022-09-09T13:11:30;53411.63;;;-145.32;100.00
14041;BME280;7095;51.388;6.196;2022-09-09T13:14:00;53407.66;;;-145.32;100.00
14041;BME280;7095;51.388;6.196;2022-09-09T13:16:30;53411.63;;;-145.32;100.00